createdAt,value
2022-07-29T00:00:28.883Z,89444.19
2022-07-29T00:02:55.884Z,89435.69
2022-07-29T00:05:22.929Z,89447.44
2022-07-29T00:07:49.786Z,89446.53
2022-07-29T00:10:16.688Z,89437.47
2022-07-29T00:12:44.034Z,89436.03
2022-07-29T00:15:11.285Z,89445.78
2022-07-29T00:17:38.294Z,89443.28
2022-07-29T00:20:06.117Z,89450.88
2022-07-29T00:22:33.009Z,89444.34
2022-07-29T00:24:59.854Z,89458.47
2022-07-29T00:27:26.804Z,89448.53
2022-07-29T00:29:53.695Z,89450.53
2022-07-29T00:32:20.590Z,89455.94
2022-07-29T00:34:47.524Z,89457.38
2022-07-29T00:37:14.377Z,89455.94
2022-07-29T00:39:41.201Z,89451.59
2022-07-29T00:42:08.507Z,89451.41
2022-07-29T00:44:40.060Z,89461.00
2022-07-29T00:47:07.835Z,89455.94
2022-07-29T00:49:35.882Z,89457.75
2022-07-29T00:52:04.507Z,89450.16
2022-07-29T00:54:31.408Z,89457.00
2022-07-29T00:57:01.520Z,89453.78
2022-07-29T00:59:34.634Z,89449.78
2022-07-29T01:02:03.973Z,89451.06
2022-07-29T01:04:32.480Z,89443.66
2022-07-29T01:07:01.701Z,89452.34
2022-07-29T01:09:42.849Z,89447.81
2022-07-29T01:12:23.840Z,89450.34
2022-07-29T01:14:52.118Z,89457.19
2022-07-29T01:17:33.476Z,89447.44
2022-07-29T01:20:08.372Z,89445.47
2022-07-29T01:22:35.177Z,89444.91
2022-07-29T01:25:14.180Z,89457.19
2022-07-29T01:27:59.462Z,89453.59
2022-07-29T01:30:28.368Z,89451.75
2022-07-29T01:33:02.946Z,89453.03
2022-07-29T01:35:37.870Z,89449.97
2022-07-29T01:38:19.745Z,89448.53
2022-07-29T01:40:52.636Z,89449.25
2022-07-29T01:43:24.850Z,89446.16
2022-07-29T01:45:57.592Z,89444.34
2022-07-29T01:48:32.740Z,89443.44
2022-07-29T01:51:20.472Z,89450.13
2022-07-29T01:53:56.369Z,89438.91
2022-07-29T01:56:25.564Z,89433.09
2022-07-29T01:58:54.590Z,89439.78
2022-07-29T02:01:25.348Z,89434.72
2022-07-29T02:03:54.351Z,89434.88
2022-07-29T02:06:23.724Z,89435.59
2022-07-29T02:08:53.219Z,89442.84
2022-07-29T02:11:20.389Z,89441.03
2022-07-29T02:13:48.627Z,89432.00
2022-07-29T02:16:22.225Z,89435.78
2022-07-29T02:18:52.419Z,89436.66
2022-07-29T02:21:25.425Z,89443.16
2022-07-29T02:23:54.186Z,89440.66
2022-07-29T02:26:24.504Z,89440.25
2022-07-29T02:28:55.274Z,89439.91
2022-07-29T02:31:26.877Z,89432.84
2022-07-29T02:33:56.082Z,89443.16
2022-07-29T02:36:24.846Z,89437.72
2022-07-29T02:38:52.589Z,89444.03
2022-07-29T02:41:31.989Z,89437.53
2022-07-29T02:44:11.039Z,89437.13
2022-07-29T02:46:43.057Z,89441.28
2022-07-29T02:49:21.784Z,89440.38
2022-07-29T02:51:59.257Z,89446.53
2022-07-29T02:54:31.699Z,89427.00
2022-07-29T02:57:03.278Z,89445.94
2022-07-29T02:59:34.358Z,89432.63
2022-07-29T03:02:03.624Z,89438.03
2022-07-29T03:04:33.432Z,89448.16
2022-07-29T03:07:02.414Z,89446.00
2022-07-29T03:09:31.209Z,89437.88
2022-07-29T03:11:58.611Z,89437.00
2022-07-29T03:14:26.283Z,89438.44
2022-07-29T03:16:53.734Z,89450.03
2022-07-29T03:19:21.579Z,89445.38
2022-07-29T03:21:48.939Z,89442.84
2022-07-29T03:24:35.428Z,89446.09
2022-07-29T03:27:03.267Z,89446.81
2022-07-29T03:29:33.543Z,89446.81
2022-07-29T03:32:03.539Z,89451.72
2022-07-29T03:34:31.173Z,89458.63
2022-07-29T03:36:58.018Z,89463.50
2022-07-29T03:39:29.140Z,89459.34
2022-07-29T03:41:59.584Z,89461.53
2022-07-29T03:44:28.677Z,89455.75
2022-07-29T03:46:59.120Z,89464.44
2022-07-29T03:49:27.591Z,89472.91
2022-07-29T03:51:55.292Z,89463.91
2022-07-29T03:54:22.403Z,89461.69
2022-07-29T03:56:51.004Z,89458.78
2022-07-29T03:59:18.837Z,89460.56
2022-07-29T04:01:47.023Z,89459.09
2022-07-29T04:04:14.519Z,89462.50
2022-07-29T04:06:48.249Z,89460.50
2022-07-29T04:09:15.977Z,89453.25
2022-07-29T04:11:57.000Z,89464.56
2022-07-29T04:14:30.706Z,89461.47
2022-07-29T04:16:57.602Z,89464.31
2022-07-29T04:19:24.536Z,89463.47
2022-07-29T04:21:51.686Z,89462.69
2022-07-29T04:24:19.101Z,89465.19
2022-07-29T04:26:49.986Z,89454.09
2022-07-29T04:29:17.279Z,89471.59
2022-07-29T04:31:45.049Z,89470.28
2022-07-29T04:34:12.513Z,89467.81
2022-07-29T04:36:39.693Z,89465.19
2022-07-29T04:39:07.413Z,89465.44
2022-07-29T04:41:34.555Z,89458.91
2022-07-29T04:44:02.186Z,89461.00
2022-07-29T04:46:29.304Z,89460.41
2022-07-29T04:48:56.431Z,89460.16
2022-07-29T04:51:23.989Z,89455.69
2022-07-29T04:53:50.808Z,89456.91
2022-07-29T04:56:17.707Z,89463.13
2022-07-29T04:58:44.650Z,89468.31
2022-07-29T05:01:11.534Z,89462.31
2022-07-29T05:03:38.472Z,89463.78
2022-07-29T05:06:05.430Z,89468.97
2022-07-29T05:08:32.278Z,89462.16
2022-07-29T05:10:59.225Z,89462.63
2022-07-29T05:13:45.482Z,89468.31
2022-07-29T05:16:14.516Z,89473.03
2022-07-29T05:18:41.975Z,89468.63
2022-07-29T05:21:08.845Z,89465.38
2022-07-29T05:23:35.697Z,89469.72
2022-07-29T05:26:02.980Z,89451.97
2022-07-29T05:28:29.926Z,89462.53
2022-07-29T05:30:56.770Z,89469.00
2022-07-29T05:33:35.248Z,89466.88
2022-07-29T05:36:08.428Z,89470.66
2022-07-29T05:38:38.910Z,89476.97
2022-07-29T05:41:06.445Z,89480.16
2022-07-29T05:43:33.812Z,89476.16
2022-07-29T05:46:01.168Z,89474.03
2022-07-29T05:48:28.343Z,89474.91
2022-07-29T05:50:55.390Z,89477.41
2022-07-29T05:53:22.377Z,89468.53
2022-07-29T05:55:49.913Z,89471.84
2022-07-29T05:58:17.218Z,89466.53
2022-07-29T06:00:44.112Z,89460.34
2022-07-29T06:03:10.936Z,89463.78
2022-07-29T06:05:37.960Z,89462.50
2022-07-29T06:08:05.257Z,89463.06
2022-07-29T06:10:32.164Z,89467.84
2022-07-29T06:12:59.022Z,89464.53
2022-07-29T06:15:26.198Z,89465.53
2022-07-29T06:18:00.292Z,89462.03
2022-07-29T06:20:32.707Z,89458.69
2022-07-29T06:23:01.320Z,89463.88
2022-07-29T06:25:29.292Z,89463.28
2022-07-29T06:27:56.366Z,89468.03
2022-07-29T06:30:23.199Z,89472.31
2022-07-29T06:32:50.038Z,89462.00
2022-07-29T06:35:39.103Z,89456.81
2022-07-29T06:38:09.539Z,89464.53
2022-07-29T06:40:51.723Z,89457.00
2022-07-29T06:43:18.565Z,89467.91
2022-07-29T06:45:45.475Z,89453.78
2022-07-29T06:48:12.416Z,89461.34
2022-07-29T06:50:39.277Z,89463.06
2022-07-29T06:53:06.174Z,89460.03
2022-07-29T06:55:33.232Z,89466.88
2022-07-29T06:58:00.094Z,89461.81
2022-07-29T07:00:26.929Z,89463.63
2022-07-29T07:02:53.992Z,89464.34
2022-07-29T07:05:20.997Z,89458.41
2022-07-29T07:07:47.851Z,89466.75
2022-07-29T07:10:14.931Z,89456.31
2022-07-29T07:12:41.806Z,89461.94
2022-07-29T07:15:08.941Z,89468.72
2022-07-29T07:17:35.967Z,89466.38
2022-07-29T07:20:03.318Z,89463.44
2022-07-29T07:22:30.168Z,89460.69
2022-07-29T07:24:57.250Z,89458.41
2022-07-29T07:27:24.126Z,89457.09
2022-07-29T07:29:50.936Z,89454.97
2022-07-29T07:32:18.201Z,89453.41
2022-07-29T07:34:45.133Z,89442.69
2022-07-29T07:37:11.985Z,89454.59
2022-07-29T07:39:38.906Z,89457.50
2022-07-29T07:42:05.915Z,89458.25
2022-07-29T07:44:36.439Z,89450.63
2022-07-29T07:47:12.557Z,89451.56
2022-07-29T07:49:39.851Z,89449.47
2022-07-29T07:52:08.615Z,89450.69
2022-07-29T07:54:36.086Z,89449.00
2022-07-29T07:57:02.949Z,89454.50
2022-07-29T07:59:29.767Z,89444.91
2022-07-29T08:01:56.970Z,89452.03
2022-07-29T08:04:28.267Z,89452.56
2022-07-29T08:06:57.205Z,89453.78
2022-07-29T08:09:30.332Z,89452.50
2022-07-29T08:11:58.874Z,89450.47
2022-07-29T08:14:26.297Z,89433.31
2022-07-29T08:16:53.428Z,89450.25
2022-07-29T08:19:20.721Z,89444.06
2022-07-29T08:21:47.651Z,89442.69
2022-07-29T08:24:14.607Z,89432.16
2022-07-29T08:26:44.843Z,89443.75
2022-07-29T08:29:13.553Z,89441.72
2022-07-29T08:31:43.198Z,89441.72
2022-07-29T08:34:11.649Z,89433.59
2022-07-29T08:36:39.001Z,89438.63
2022-07-29T08:39:06.172Z,89444.59
2022-07-29T08:41:33.025Z,89443.66
2022-07-29T08:43:59.877Z,89439.47
2022-07-29T08:46:26.982Z,89439.25
2022-07-29T08:48:53.814Z,89430.88
2022-07-29T08:51:21.850Z,89435.75
2022-07-29T08:53:50.471Z,89424.41
2022-07-29T08:56:19.572Z,89425.59
2022-07-29T08:58:50.654Z,89430.50
2022-07-29T09:01:36.335Z,89428.59
2022-07-29T09:04:12.416Z,89426.91
2022-07-29T09:06:45.034Z,89429.88
2022-07-29T09:09:12.322Z,89427.22
2022-07-29T09:11:39.188Z,89422.09
2022-07-29T09:14:06.412Z,89418.38
2022-07-29T09:16:54.079Z,89418.38
2022-07-29T09:19:22.051Z,89417.03
2022-07-29T09:21:48.938Z,89416.84
2022-07-29T09:24:15.801Z,89421.38
2022-07-29T09:26:45.353Z,89407.72
2022-07-29T09:29:21.982Z,89408.44
2022-07-29T09:31:52.506Z,89403.28
2022-07-29T09:34:25.095Z,89406.28
2022-07-29T09:36:54.133Z,89405.78
2022-07-29T09:39:36.109Z,89406.41
2022-07-29T09:42:07.417Z,89405.38
2022-07-29T09:44:48.881Z,89399.97
2022-07-29T09:47:17.268Z,89410.16
2022-07-29T09:50:04.683Z,89405.63
2022-07-29T09:52:31.986Z,89402.59
2022-07-29T09:55:09.762Z,89398.81
2022-07-29T09:57:36.907Z,89401.19
2022-07-29T10:00:09.427Z,89399.16
2022-07-29T10:02:38.568Z,89396.56
2022-07-29T10:05:16.923Z,89394.06
2022-07-29T10:07:53.326Z,89392.38
2022-07-29T10:10:29.654Z,89406.94
2022-07-29T10:13:07.822Z,89401.44
2022-07-29T10:15:45.429Z,89396.16
2022-07-29T10:18:14.256Z,89399.25
2022-07-29T10:20:41.584Z,89399.16
2022-07-29T10:23:09.658Z,89404.31
2022-07-29T10:25:36.693Z,89401.22
2022-07-29T10:28:03.735Z,89404.81
2022-07-29T10:30:32.177Z,89391.16
2022-07-29T10:33:12.205Z,89391.00
2022-07-29T10:36:09.358Z,89392.31
2022-07-29T10:39:00.382Z,89385.81
2022-07-29T10:41:44.822Z,89391.81
2022-07-29T10:44:22.901Z,89391.56
2022-07-29T10:46:52.000Z,89377.69
2022-07-29T10:49:26.695Z,89385.06
2022-07-29T10:51:59.147Z,89380.81
2022-07-29T10:54:39.657Z,89376.84
2022-07-29T10:57:21.786Z,89383.69
2022-07-29T11:00:16.973Z,89380.03
2022-07-29T11:02:47.482Z,89375.38
2022-07-29T11:05:19.523Z,89373.56
2022-07-29T11:08:19.550Z,89370.09
2022-07-29T11:11:15.741Z,89368.69
2022-07-29T11:13:52.566Z,89365.78
2022-07-29T11:16:21.489Z,89352.97
2022-07-29T11:19:14.022Z,89348.50
2022-07-29T11:21:55.087Z,89356.16
2022-07-29T11:24:30.569Z,89354.84
2022-07-29T11:27:31.963Z,89357.41
2022-07-29T11:30:01.263Z,89344.75
2022-07-29T11:32:39.341Z,89335.25
2022-07-29T11:35:36.793Z,89334.75
2022-07-29T11:38:23.169Z,89324.53
2022-07-29T11:41:21.884Z,89333.53
2022-07-29T11:43:50.678Z,89324.53
2022-07-29T11:46:39.578Z,89317.28
2022-07-29T11:49:09.210Z,89319.13
2022-07-29T11:51:48.318Z,89322.59
2022-07-29T11:54:27.403Z,89318.31
2022-07-29T11:56:54.987Z,89313.41
2022-07-29T11:59:23.010Z,89312.09
2022-07-29T12:02:36.269Z,89310.66
2022-07-29T12:04:56.136Z,89305.66
2022-07-29T12:07:34.968Z,89302.59
2022-07-29T12:10:03.301Z,89300.78
2022-07-29T12:12:30.406Z,89294.22
2022-07-29T12:14:57.486Z,89303.59
2022-07-29T12:17:30.629Z,89295.13
2022-07-29T12:19:59.563Z,89298.41
2022-07-29T12:22:33.920Z,89297.66
2022-07-29T12:25:30.247Z,89289.81
2022-07-29T12:28:01.126Z,89289.19
2022-07-29T12:30:45.887Z,89301.94
2022-07-29T12:33:20.030Z,89282.00
2022-07-29T12:36:07.031Z,89288.09
2022-07-29T12:38:36.612Z,89288.63
2022-07-29T12:41:04.553Z,89288.22
2022-07-29T12:43:31.877Z,89283.97
2022-07-29T12:45:58.782Z,89280.91
2022-07-29T12:48:41.704Z,89276.44
2022-07-29T12:51:09.589Z,89275.53
2022-07-29T12:53:37.772Z,89273.41
2022-07-29T12:56:20.586Z,89262.63
2022-07-29T12:58:51.155Z,89265.50
2022-07-29T13:01:19.625Z,89264.44
2022-07-29T13:03:57.575Z,89256.38
2022-07-29T13:06:38.834Z,89259.31
2022-07-29T13:09:12.912Z,89249.91
2022-07-29T13:11:48.682Z,89253.56
2022-07-29T13:14:34.611Z,89249.91
2022-07-29T13:17:19.638Z,89253.91
2022-07-29T13:20:15.943Z,89254.81
2022-07-29T13:22:43.882Z,89241.66
2022-07-29T13:25:10.984Z,89242.03
2022-07-29T13:27:39.739Z,89239.78
2022-07-29T13:30:09.858Z,89239.59
2022-07-29T13:32:37.445Z,89235.41
2022-07-29T13:35:08.890Z,89239.78
2022-07-29T13:37:36.979Z,89238.03
2022-07-29T13:40:04.750Z,89243.34
2022-07-29T13:42:33.351Z,89245.81
2022-07-29T13:45:01.564Z,89240.03
2022-07-29T13:47:32.466Z,89238.81
2022-07-29T13:50:07.753Z,89232.56
2022-07-29T13:52:35.260Z,89232.66
2022-07-29T13:55:03.071Z,89236.75
2022-07-29T13:57:30.111Z,89231.84
2022-07-29T13:59:57.393Z,89229.19
2022-07-29T14:02:25.720Z,89224.28
2022-07-29T14:04:54.698Z,89223.28
2022-07-29T14:07:22.204Z,89226.13
2022-07-29T14:09:49.056Z,89227.66
2022-07-29T14:12:16.414Z,89217.78
2022-07-29T14:14:43.517Z,89222.91
2022-07-29T14:17:10.788Z,89212.91
2022-07-29T14:19:37.970Z,89215.50
2022-07-29T14:22:06.737Z,89210.25
2022-07-29T14:24:37.077Z,89213.88
2022-07-29T14:27:05.674Z,89224.19
2022-07-29T14:29:37.775Z,89215.09
2022-07-29T14:32:09.947Z,89213.47
2022-07-29T14:34:37.733Z,89211.31
2022-07-29T14:37:05.359Z,89209.97
2022-07-29T14:39:32.888Z,89215.94
2022-07-29T14:42:00.215Z,89214.25
2022-07-29T14:44:27.428Z,89204.16
2022-07-29T14:46:54.371Z,89208.59
2022-07-29T14:49:21.242Z,89200.47
2022-07-29T14:51:48.226Z,89207.03
2022-07-29T14:54:15.189Z,89201.50
2022-07-29T14:56:46.486Z,89208.34
2022-07-29T14:59:14.279Z,89213.03
2022-07-29T15:01:41.310Z,89203.13
2022-07-29T15:04:08.225Z,89207.63
2022-07-29T15:06:35.136Z,89200.31
2022-07-29T15:09:02.013Z,89213.28
2022-07-29T15:11:28.946Z,89213.81
2022-07-29T15:13:55.833Z,89209.50
2022-07-29T15:16:22.883Z,89206.56
2022-07-29T15:18:49.751Z,89209.16
2022-07-29T15:21:16.608Z,89213.00
2022-07-29T15:23:44.045Z,89205.78
2022-07-29T15:26:10.942Z,89205.44
2022-07-29T15:28:37.753Z,89198.50
2022-07-29T15:31:05.162Z,89208.72
2022-07-29T15:33:32.077Z,89207.69
2022-07-29T15:36:01.356Z,89205.66
2022-07-29T15:38:28.788Z,89203.41
2022-07-29T15:40:56.210Z,89203.41
2022-07-29T15:43:23.595Z,89201.69
2022-07-29T15:45:53.104Z,89203.72
2022-07-29T15:48:19.986Z,89198.84
2022-07-29T15:50:47.306Z,89208.81
2022-07-29T15:53:14.432Z,89202.31
2022-07-29T15:55:41.318Z,89202.00
2022-07-29T15:58:11.372Z,89209.72
2022-07-29T16:00:38.331Z,89204.69
2022-07-29T16:03:05.197Z,89213.38
2022-07-29T16:05:32.088Z,89208.56
2022-07-29T16:07:59.059Z,89208.34
2022-07-29T16:10:25.890Z,89206.72
2022-07-29T16:12:53.481Z,89213.66
2022-07-29T16:15:20.424Z,89215.59
2022-07-29T16:17:47.342Z,89216.69
2022-07-29T16:20:14.250Z,89215.03
2022-07-29T16:22:41.196Z,89211.28
2022-07-29T16:25:08.564Z,89215.13
2022-07-29T16:27:37.616Z,89214.06
2022-07-29T16:30:06.991Z,89212.19
2022-07-29T16:32:33.814Z,89223.34
2022-07-29T16:35:00.634Z,89220.66
2022-07-29T16:37:28.958Z,89233.97
2022-07-29T16:39:55.752Z,89235.44
2022-07-29T16:42:44.363Z,89234.16
2022-07-29T16:45:11.338Z,89234.28
2022-07-29T16:47:38.221Z,89231.91
2022-07-29T16:50:05.636Z,89232.75
2022-07-29T16:52:32.512Z,89242.56
2022-07-29T16:54:59.449Z,89237.44
2022-07-29T16:57:26.323Z,89246.88
2022-07-29T16:59:53.220Z,89238.78
2022-07-29T17:02:20.116Z,89234.84
2022-07-29T17:04:47.022Z,89242.59
2022-07-29T17:07:14.064Z,89240.06
2022-07-29T17:09:40.942Z,89240.31
2022-07-29T17:12:08.278Z,89239.97
2022-07-29T17:14:35.255Z,89243.06
2022-07-29T17:17:03.015Z,89248.44
2022-07-29T17:19:34.965Z,89244.84
2022-07-29T17:22:11.783Z,89254.03
2022-07-29T17:24:41.421Z,89254.97
2022-07-29T17:27:09.534Z,89254.59
2022-07-29T17:29:36.409Z,89263.75
2022-07-29T17:32:03.496Z,89268.25
2022-07-29T17:34:31.262Z,89268.75
2022-07-29T17:36:58.390Z,89266.22
2022-07-29T17:39:25.338Z,89267.47
2022-07-29T17:41:52.319Z,89268.75
2022-07-29T17:44:19.205Z,89275.75
2022-07-29T17:46:46.190Z,89277.50
2022-07-29T17:49:13.171Z,89282.72
2022-07-29T17:51:40.193Z,89279.56
2022-07-29T17:54:07.072Z,89289.22
2022-07-29T17:56:34.186Z,89286.56
2022-07-29T17:59:01.026Z,89288.22
2022-07-29T18:01:28.545Z,89291.28
2022-07-29T18:03:59.969Z,89295.63
2022-07-29T18:06:27.279Z,89302.00
2022-07-29T18:08:54.389Z,89301.03
2022-07-29T18:11:22.274Z,89305.09
2022-07-29T18:13:49.260Z,89302.34
2022-07-29T18:16:19.123Z,89308.72
2022-07-29T18:18:46.581Z,89310.44
2022-07-29T18:21:13.622Z,89305.84
2022-07-29T18:23:40.672Z,89308.72
2022-07-29T18:26:07.623Z,89298.38
2022-07-29T18:28:34.497Z,89303.56
2022-07-29T18:31:01.815Z,89297.44
2022-07-29T18:33:29.295Z,89304.94
2022-07-29T18:36:11.212Z,89311.13
2022-07-29T18:38:40.325Z,89308.44
2022-07-29T18:41:07.331Z,89324.00
2022-07-29T18:43:34.156Z,89315.69
2022-07-29T18:46:01.006Z,89316.59
2022-07-29T18:48:29.563Z,89329.81
2022-07-29T18:50:56.466Z,89322.22
2022-07-29T18:53:23.351Z,89330.56
2022-07-29T18:55:50.155Z,89338.06
2022-07-29T18:58:17.156Z,89339.25
2022-07-29T19:00:44.113Z,89349.88
2022-07-29T19:03:11.076Z,89335.66
2022-07-29T19:05:38.055Z,89331.22
2022-07-29T19:08:05.133Z,89335.38
2022-07-29T19:10:32.012Z,89334.09
2022-07-29T19:12:58.841Z,89329.75
2022-07-29T19:15:26.060Z,89327.31
2022-07-29T19:17:55.556Z,89323.28
2022-07-29T19:20:24.756Z,89331.59
2022-07-29T19:22:51.781Z,89328.03
2022-07-29T19:25:18.667Z,89333.31
2022-07-29T19:27:46.377Z,89326.00
2022-07-29T19:30:13.442Z,89329.44
2022-07-29T19:32:40.307Z,89329.00
2022-07-29T19:35:07.840Z,89332.19
2022-07-29T19:37:34.789Z,89329.13
2022-07-29T19:40:01.642Z,89339.06
2022-07-29T19:42:28.496Z,89341.03
2022-07-29T19:44:55.423Z,89342.50
2022-07-29T19:47:22.298Z,89337.75
2022-07-29T19:49:49.189Z,89333.88
2022-07-29T19:52:16.203Z,89325.69
2022-07-29T19:54:42.995Z,89329.56
2022-07-29T19:57:09.869Z,89331.72
2022-07-29T19:59:36.813Z,89329.97
2022-07-29T20:02:04.130Z,89332.00
2022-07-29T20:04:31.066Z,89333.28
2022-07-29T20:06:59.267Z,89337.56
2022-07-29T20:09:26.441Z,89339.59
2022-07-29T20:11:53.657Z,89333.41
2022-07-29T20:14:20.593Z,89337.44
2022-07-29T20:16:47.539Z,89334.56
2022-07-29T20:19:14.493Z,89333.94
2022-07-29T20:21:41.615Z,89342.56
2022-07-29T20:24:09.195Z,89337.50
2022-07-29T20:26:36.088Z,89335.22
2022-07-29T20:29:03.005Z,89335.78
2022-07-29T20:31:29.877Z,89330.91
2022-07-29T20:33:56.709Z,89330.59
2022-07-29T20:36:23.674Z,89341.66
2022-07-29T20:38:50.624Z,89335.75
2022-07-29T20:41:17.456Z,89335.44
2022-07-29T20:43:44.299Z,89340.59
2022-07-29T20:46:11.327Z,89338.00
2022-07-29T20:48:38.572Z,89336.81
2022-07-29T20:51:05.778Z,89339.81
2022-07-29T20:53:32.690Z,89344.94
2022-07-29T20:56:00.024Z,89349.38
2022-07-29T20:58:26.864Z,89350.91
2022-07-29T21:00:53.697Z,89341.28
2022-07-29T21:03:20.520Z,89339.66
2022-07-29T21:05:47.614Z,89345.44
2022-07-29T21:08:14.553Z,89350.03
2022-07-29T21:10:41.444Z,89344.81
2022-07-29T21:13:08.691Z,89343.38
2022-07-29T21:15:35.734Z,89337.63
2022-07-29T21:18:02.603Z,89344.22
2022-07-29T21:20:30.592Z,89346.94
2022-07-29T21:22:58.164Z,89349.91
2022-07-29T21:25:25.839Z,89353.03
2022-07-29T21:27:52.776Z,89355.28
2022-07-29T21:30:19.756Z,89354.66
2022-07-29T21:32:46.721Z,89354.50
2022-07-29T21:35:30.289Z,89337.97
2022-07-29T21:38:00.734Z,89343.75
2022-07-29T21:40:27.731Z,89346.19
2022-07-29T21:42:54.601Z,89352.44
2022-07-29T21:45:21.440Z,89350.84
2022-07-29T21:47:48.374Z,89354.69
2022-07-29T21:50:15.229Z,89368.00
2022-07-29T21:52:42.104Z,89360.78
2022-07-29T21:55:10.689Z,89367.03
2022-07-29T21:57:38.551Z,89364.88
2022-07-29T22:00:07.431Z,89359.25
2022-07-29T22:02:34.375Z,89356.94
2022-07-29T22:05:01.310Z,89352.19
2022-07-29T22:07:55.799Z,89347.63
2022-07-29T22:10:16.004Z,89352.19
2022-07-29T22:12:42.999Z,89342.03
2022-07-29T22:15:11.219Z,89344.44
2022-07-29T22:17:40.248Z,89338.59
2022-07-29T22:20:07.647Z,89348.75
2022-07-29T22:22:34.530Z,89353.41
2022-07-29T22:25:01.848Z,89346.75
2022-07-29T22:27:28.830Z,89351.00
2022-07-29T22:29:55.775Z,89351.06
2022-07-29T22:32:22.803Z,89351.31
2022-07-29T22:34:49.664Z,89352.03
2022-07-29T22:37:16.806Z,89352.09
2022-07-29T22:39:44.041Z,89351.38
2022-07-29T22:42:11.006Z,89342.50
2022-07-29T22:44:37.854Z,89339.22
2022-07-29T22:47:05.187Z,89342.91
2022-07-29T22:49:32.051Z,89338.25
2022-07-29T22:51:59.066Z,89341.53
2022-07-29T22:54:26.681Z,89342.78
2022-07-29T22:56:53.767Z,89326.66
2022-07-29T22:59:20.669Z,89342.28
2022-07-29T23:01:47.731Z,89337.94
2022-07-29T23:04:14.687Z,89331.06
2022-07-29T23:06:41.677Z,89332.19
2022-07-29T23:09:08.616Z,89330.19
2022-07-29T23:11:35.491Z,89329.16
2022-07-29T23:14:02.396Z,89328.09
2022-07-29T23:16:29.263Z,89330.41
2022-07-29T23:18:56.172Z,89328.31
2022-07-29T23:21:23.082Z,89328.31
2022-07-29T23:23:50.103Z,89330.53
2022-07-29T23:26:17.081Z,89326.59
2022-07-29T23:28:45.302Z,89321.56
2022-07-29T23:31:12.799Z,89323.63
2022-07-29T23:33:41.469Z,89331.03
2022-07-29T23:36:08.717Z,89325.97
2022-07-29T23:38:35.637Z,89328.22
2022-07-29T23:41:02.688Z,89327.47
2022-07-29T23:43:29.568Z,89317.16
2022-07-29T23:45:58.215Z,89321.91
2022-07-29T23:48:25.184Z,89313.28
2022-07-29T23:50:52.059Z,89305.13
2022-07-29T23:53:19.088Z,89310.72
2022-07-29T23:55:45.996Z,89305.88
2022-07-29T23:58:12.835Z,89316.56
